createdAt,value
2022-08-17T00:00:49.459Z,21.48
2022-08-17T00:03:30.102Z,21.43
2022-08-17T00:06:12.399Z,21.37
2022-08-17T00:08:48.708Z,21.28
2022-08-17T00:11:26.059Z,21.25
2022-08-17T00:14:01.411Z,21.29
2022-08-17T00:16:56.273Z,21.29
2022-08-17T00:19:29.128Z,21.30
2022-08-17T00:22:34.726Z,21.27
2022-08-17T00:24:54.891Z,21.24
2022-08-17T00:27:29.066Z,21.17
2022-08-17T00:30:31.386Z,21.10
2022-08-17T00:33:28.441Z,21.14
2022-08-17T00:35:58.207Z,21.18
2022-08-17T00:38:28.068Z,21.21
2022-08-17T00:41:00.007Z,21.18
2022-08-17T00:43:45.761Z,21.10
2022-08-17T00:46:40.472Z,21.08
2022-08-17T00:49:11.013Z,21.02
2022-08-17T00:51:46.760Z,20.98
2022-08-17T00:54:16.660Z,20.97
2022-08-17T00:57:07.418Z,20.98
2022-08-17T00:59:56.015Z,21.01
2022-08-17T01:02:41.713Z,20.97
2022-08-17T01:05:20.700Z,20.96
2022-08-17T01:07:51.122Z,20.94
2022-08-17T01:10:59.497Z,20.90
2022-08-17T01:13:13.110Z,20.85
2022-08-17T01:15:48.488Z,20.78
2022-08-17T01:18:16.771Z,20.69
2022-08-17T01:20:55.122Z,20.70
2022-08-17T01:23:25.861Z,20.70
2022-08-17T01:25:58.021Z,20.68
2022-08-17T01:28:52.438Z,20.61
2022-08-17T01:31:19.719Z,20.60
2022-08-17T01:33:48.068Z,20.61
2022-08-17T01:36:16.108Z,20.62
2022-08-17T01:38:44.130Z,20.62
2022-08-17T01:41:16.566Z,20.63
2022-08-17T01:43:51.787Z,20.63
2022-08-17T01:46:24.632Z,20.64
2022-08-17T01:48:52.926Z,20.63
2022-08-17T01:51:21.770Z,20.60
2022-08-17T01:53:53.008Z,20.59
2022-08-17T01:56:26.495Z,20.54
2022-08-17T01:58:54.864Z,20.41
2022-08-17T02:01:28.158Z,20.30
2022-08-17T02:04:00.560Z,20.22
2022-08-17T02:06:45.349Z,20.20
2022-08-17T02:09:23.291Z,20.25
2022-08-17T02:11:57.545Z,20.30
2022-08-17T02:14:26.000Z,20.32
2022-08-17T02:16:56.130Z,20.32
2022-08-17T02:19:24.338Z,20.27
2022-08-17T02:21:55.088Z,20.24
2022-08-17T02:25:00.815Z,20.26
2022-08-17T02:27:17.852Z,20.25
2022-08-17T02:32:40.480Z,20.14
2022-08-17T02:35:09.917Z,20.03
2022-08-17T02:37:38.276Z,19.95
2022-08-17T02:44:14.925Z,19.81
2022-08-17T02:47:02.180Z,19.81
2022-08-17T02:49:46.271Z,19.80
2022-08-17T02:52:43.335Z,19.85
2022-08-17T02:55:49.974Z,19.88
2022-08-17T02:58:35.854Z,19.88
2022-08-17T03:01:17.855Z,19.89
2022-08-17T03:04:01.706Z,19.93
2022-08-17T03:06:33.057Z,19.97
2022-08-17T03:09:09.102Z,20.00
2022-08-17T03:11:41.992Z,20.04
2022-08-17T03:14:12.319Z,20.04
2022-08-17T03:16:42.769Z,20.03
2022-08-17T03:19:13.832Z,19.98
2022-08-17T03:21:54.806Z,19.96
2022-08-17T03:24:28.964Z,19.96
2022-08-17T03:26:59.489Z,19.96
2022-08-17T03:29:29.040Z,19.97
2022-08-17T03:32:02.019Z,19.94
2022-08-17T03:34:30.772Z,19.94
2022-08-17T03:36:59.357Z,19.93
2022-08-17T03:39:28.322Z,19.96
2022-08-17T03:42:07.869Z,19.92
2022-08-17T03:44:57.900Z,19.77
2022-08-17T03:47:47.787Z,19.66
2022-08-17T03:50:37.027Z,19.63
2022-08-17T03:53:34.495Z,19.67
2022-08-17T03:56:22.974Z,19.66
2022-08-17T03:58:51.503Z,19.68
2022-08-17T04:01:19.915Z,19.65
2022-08-17T04:03:52.076Z,19.63
2022-08-17T04:06:22.988Z,19.60
2022-08-17T04:08:51.689Z,19.61
2022-08-17T04:11:41.610Z,19.60
2022-08-17T04:14:51.660Z,19.56
2022-08-17T04:17:34.823Z,19.65
2022-08-17T04:20:07.987Z,19.70
2022-08-17T04:22:36.595Z,19.70
2022-08-17T04:25:18.978Z,19.70
2022-08-17T04:27:52.050Z,19.76
2022-08-17T04:30:21.508Z,19.81
2022-08-17T04:33:04.215Z,19.89
2022-08-17T04:35:41.892Z,19.89
2022-08-17T04:38:13.990Z,19.93
2022-08-17T04:41:06.358Z,20.03
2022-08-17T04:43:37.541Z,20.06
2022-08-17T04:46:08.939Z,20.15
2022-08-17T04:49:03.587Z,20.24
2022-08-17T04:51:56.833Z,20.36
2022-08-17T04:55:21.180Z,20.48
2022-08-17T04:58:03.436Z,20.56
2022-08-17T05:00:35.026Z,20.61
2022-08-17T05:03:40.431Z,20.66
2022-08-17T05:06:29.018Z,20.75
2022-08-17T05:09:06.784Z,20.81
2022-08-17T05:12:38.059Z,20.94
2022-08-17T05:15:39.024Z,21.04
2022-08-17T05:18:13.834Z,21.18
2022-08-17T05:20:45.912Z,21.28
2022-08-17T05:23:17.981Z,21.35
2022-08-17T05:25:50.516Z,21.40
2022-08-17T05:28:24.093Z,21.51
2022-08-17T05:31:25.482Z,21.62
2022-08-17T05:33:54.206Z,21.75
2022-08-17T05:36:41.933Z,21.86
2022-08-17T05:39:16.320Z,21.98
2022-08-17T05:41:48.845Z,22.08
2022-08-17T05:44:19.353Z,22.16
2022-08-17T05:46:55.240Z,22.22
2022-08-17T05:49:28.033Z,22.31
2022-08-17T05:52:22.050Z,22.38
2022-08-17T05:55:01.175Z,22.48
2022-08-17T05:58:51.643Z,22.55
2022-08-17T06:01:27.136Z,22.63
2022-08-17T06:03:59.518Z,22.71
2022-08-17T06:11:58.818Z,22.97
2022-08-17T06:14:34.398Z,23.13
2022-08-17T06:17:10.493Z,23.19
2022-08-17T06:20:01.871Z,23.17
2022-08-17T06:22:36.586Z,23.16
2022-08-17T06:25:20.506Z,23.24
2022-08-17T06:27:58.588Z,23.35
2022-08-17T06:30:58.455Z,23.44
2022-08-17T06:33:37.290Z,23.60
2022-08-17T06:36:40.265Z,23.69
2022-08-17T06:39:19.847Z,23.89
2022-08-17T06:42:05.439Z,24.02
2022-08-17T06:44:49.789Z,24.19
2022-08-17T06:47:52.984Z,24.36
2022-08-17T06:50:41.596Z,24.55
2022-08-17T06:53:22.123Z,24.74
2022-08-17T06:56:09.079Z,24.90
2022-08-17T06:58:40.298Z,25.09
2022-08-17T07:01:18.756Z,25.28
2022-08-17T07:03:54.671Z,25.49
2022-08-17T07:06:29.921Z,25.66
2022-08-17T07:09:13.725Z,25.82
2022-08-17T07:11:56.983Z,25.97
2022-08-17T07:15:05.983Z,26.11
2022-08-17T07:17:47.448Z,26.28
2022-08-17T07:20:31.530Z,26.37
2022-08-17T07:23:30.417Z,26.46
2022-08-17T07:26:09.050Z,26.60
2022-08-17T07:28:37.428Z,26.76
2022-08-17T07:31:12.931Z,26.89
2022-08-17T07:34:00.299Z,26.99
2022-08-17T07:36:33.815Z,27.13
2022-08-17T07:39:03.682Z,27.28
2022-08-17T07:41:53.243Z,27.46
2022-08-17T07:44:26.981Z,27.64
2022-08-17T07:47:14.353Z,27.75
2022-08-17T07:49:50.566Z,27.92
2022-08-17T07:52:51.828Z,28.09
2022-08-17T07:55:31.836Z,28.32
2022-08-17T07:58:00.298Z,28.48
2022-08-17T08:00:32.606Z,28.68
2022-08-17T08:03:06.494Z,28.85
2022-08-17T08:05:49.695Z,29.02
2022-08-17T08:08:43.557Z,29.10
2022-08-17T08:11:15.481Z,29.21
2022-08-17T08:13:45.767Z,29.32
2022-08-17T08:16:27.157Z,29.42
2022-08-17T08:19:03.315Z,29.56
2022-08-17T08:22:16.650Z,29.68
2022-08-17T08:25:07.340Z,29.90
2022-08-17T08:27:54.853Z,30.04
2022-08-17T08:30:28.228Z,30.10
2022-08-17T08:33:20.904Z,30.24
2022-08-17T08:36:57.122Z,30.37
2022-08-17T08:39:19.758Z,30.40
2022-08-17T08:41:59.909Z,30.49
2022-08-17T08:45:00.140Z,30.60
2022-08-17T08:47:58.193Z,30.77
2022-08-17T08:51:15.795Z,30.85
2022-08-17T08:53:49.436Z,30.91
2022-08-17T08:57:11.573Z,31.02
2022-08-17T09:00:02.007Z,31.13
2022-08-17T09:02:35.146Z,31.16
2022-08-17T09:05:14.380Z,31.26
2022-08-17T09:07:58.871Z,31.40
2022-08-17T09:10:50.350Z,31.48
2022-08-17T09:13:38.283Z,31.61
2022-08-17T09:16:16.606Z,31.75
2022-08-17T09:19:02.550Z,31.84
2022-08-17T09:21:38.321Z,31.93
2022-08-17T09:24:25.682Z,32.09
2022-08-17T09:27:13.323Z,32.20
2022-08-17T09:29:49.241Z,32.34
2022-08-17T09:32:31.474Z,32.36
2022-08-17T09:35:09.449Z,32.41
2022-08-17T09:38:01.793Z,32.52
2022-08-17T09:41:03.048Z,32.58
2022-08-17T09:43:41.555Z,32.60
2022-08-17T09:46:19.348Z,32.72
2022-08-17T09:49:07.634Z,32.87
2022-08-17T09:51:49.510Z,33.05
2022-08-17T09:54:41.156Z,33.16
2022-08-17T09:57:31.626Z,33.36
2022-08-17T10:00:23.882Z,33.61
2022-08-17T10:03:16.551Z,33.76
2022-08-17T10:05:57.087Z,33.89
2022-08-17T10:08:52.604Z,34.08
2022-08-17T10:12:10.101Z,34.29
2022-08-17T10:14:55.125Z,34.52
2022-08-17T10:17:31.316Z,34.59
2022-08-17T10:20:14.889Z,34.73
2022-08-17T10:23:04.673Z,34.84
2022-08-17T10:25:56.047Z,35.05
2022-08-17T10:28:31.981Z,35.10
2022-08-17T10:31:33.689Z,35.18
2022-08-17T10:34:07.359Z,35.45
2022-08-17T10:37:09.517Z,35.63
2022-08-17T10:40:16.730Z,35.80
2022-08-17T10:43:07.358Z,36.05
2022-08-17T10:46:09.229Z,36.21
2022-08-17T10:49:04.414Z,36.20
2022-08-17T10:51:55.559Z,36.45
2022-08-17T10:54:49.723Z,36.38
2022-08-17T10:57:28.169Z,35.97
2022-08-17T11:00:35.647Z,35.37
2022-08-17T11:03:22.403Z,34.70
2022-08-17T11:06:29.599Z,34.34
2022-08-17T11:09:53.135Z,34.48
2022-08-17T11:12:33.674Z,35.00
2022-08-17T11:15:10.436Z,35.19
2022-08-17T11:17:51.333Z,35.17
2022-08-17T11:20:23.306Z,35.15
2022-08-17T11:23:26.174Z,35.43
2022-08-17T11:26:01.678Z,35.15
2022-08-17T11:28:36.064Z,34.78
2022-08-17T11:31:39.270Z,34.72
2022-08-17T11:34:18.891Z,35.16
2022-08-17T11:37:08.648Z,35.51
2022-08-17T11:39:49.092Z,35.78
2022-08-17T11:42:30.793Z,36.04
2022-08-17T11:45:08.033Z,36.22
2022-08-17T11:48:27.008Z,36.43
2022-08-17T11:51:47.204Z,36.69
2022-08-17T11:54:34.579Z,36.85
2022-08-17T11:57:41.858Z,37.02
2022-08-17T12:01:00.148Z,36.85
2022-08-17T12:03:33.502Z,36.59
2022-08-17T12:06:31.106Z,36.65
2022-08-17T12:09:24.772Z,36.79
2022-08-17T12:12:12.781Z,36.82
2022-08-17T12:15:09.582Z,37.03
2022-08-17T12:17:50.260Z,37.26
2022-08-17T12:20:28.434Z,37.47
2022-08-17T12:23:32.298Z,37.53
2022-08-17T12:26:01.598Z,37.67
2022-08-17T12:28:38.217Z,37.86
2022-08-17T12:31:26.402Z,37.95
2022-08-17T12:33:56.797Z,38.08
2022-08-17T12:36:28.267Z,38.08
2022-08-17T12:39:14.139Z,38.05
2022-08-17T12:41:47.145Z,38.11
2022-08-17T12:44:24.820Z,38.33
2022-08-17T12:50:28.684Z,38.67
2022-08-17T12:53:01.929Z,38.73
2022-08-17T12:55:37.632Z,38.79
2022-08-17T12:58:15.370Z,38.48
2022-08-17T13:00:50.047Z,38.30
2022-08-17T13:03:23.044Z,38.43
2022-08-17T13:05:58.085Z,38.63
2022-08-17T13:09:40.760Z,38.67
2022-08-17T13:15:36.160Z,38.67
2022-08-17T13:18:52.511Z,38.84
2022-08-17T13:21:31.138Z,38.78
2022-08-17T13:24:08.024Z,38.81
2022-08-17T13:26:48.701Z,38.86
2022-08-17T13:29:23.358Z,38.84
2022-08-17T13:32:45.623Z,39.10
2022-08-17T13:35:39.559Z,39.45
2022-08-17T13:38:38.570Z,39.53
2022-08-17T13:41:42.697Z,39.41
2022-08-17T13:44:35.135Z,39.68
2022-08-17T13:48:14.019Z,39.85
2022-08-17T13:51:58.570Z,40.08
2022-08-17T13:54:35.206Z,40.46
2022-08-17T13:57:18.169Z,40.76
2022-08-17T13:59:53.807Z,41.06
2022-08-17T14:02:27.630Z,41.27
2022-08-17T14:04:58.685Z,41.49
2022-08-17T14:07:32.130Z,41.79
2022-08-17T14:10:16.709Z,41.95
2022-08-17T14:12:46.682Z,42.20
2022-08-17T14:15:20.804Z,42.45
2022-08-17T14:17:57.097Z,42.64
2022-08-17T14:20:26.699Z,42.76
2022-08-17T14:22:56.130Z,42.98
2022-08-17T14:25:32.477Z,43.31
2022-08-17T14:28:10.198Z,43.59
2022-08-17T14:30:44.075Z,43.69
2022-08-17T14:33:14.598Z,43.84
2022-08-17T14:35:49.329Z,43.96
2022-08-17T14:38:19.570Z,44.05
2022-08-17T14:40:56.281Z,44.24
2022-08-17T14:43:44.739Z,44.59
2022-08-17T14:46:15.933Z,45.02
2022-08-17T14:48:55.156Z,45.36
2022-08-17T14:51:30.971Z,45.63
2022-08-17T14:54:00.665Z,45.79
2022-08-17T14:56:31.694Z,45.68
2022-08-17T14:59:10.047Z,45.91
2022-08-17T15:01:44.143Z,46.23
2022-08-17T15:04:21.463Z,46.55
2022-08-17T15:06:51.625Z,46.73
2022-08-17T15:09:26.033Z,47.01
2022-08-17T15:11:57.338Z,47.26
2022-08-17T15:14:26.651Z,47.59
2022-08-17T15:16:55.104Z,47.82
2022-08-17T15:19:26.142Z,47.76
2022-08-17T15:21:54.460Z,47.70
2022-08-17T15:24:22.620Z,47.76
2022-08-17T15:26:52.690Z,47.78
2022-08-17T15:29:23.270Z,47.78
2022-08-17T15:31:52.267Z,47.77
2022-08-17T15:34:22.559Z,47.89
2022-08-17T15:36:50.751Z,48.11
2022-08-17T15:39:19.562Z,48.39
2022-08-17T15:41:58.437Z,48.70
2022-08-17T15:44:32.537Z,48.69
2022-08-17T15:47:03.622Z,48.79
2022-08-17T15:49:31.802Z,48.69
2022-08-17T15:52:00.040Z,48.51
2022-08-17T15:54:36.085Z,48.53
2022-08-17T15:57:05.711Z,48.59
2022-08-17T15:59:35.139Z,48.66
2022-08-17T16:03:01.187Z,48.82
2022-08-17T16:05:10.691Z,49.03
2022-08-17T16:07:39.317Z,48.64
2022-08-17T16:10:08.595Z,47.64
2022-08-17T16:12:47.907Z,46.27
2022-08-17T16:15:16.749Z,44.90
2022-08-17T16:17:45.125Z,43.62
2022-08-17T16:20:20.610Z,43.09
2022-08-17T16:22:50.548Z,43.98
2022-08-17T16:25:38.378Z,44.66
2022-08-17T16:28:22.406Z,44.51
2022-08-17T16:30:58.894Z,43.39
2022-08-17T16:33:28.410Z,42.34
2022-08-17T16:35:58.310Z,41.42
2022-08-17T16:38:27.223Z,40.79
2022-08-17T16:40:56.582Z,40.52
2022-08-17T16:43:25.719Z,40.48
2022-08-17T16:45:55.013Z,40.21
2022-08-17T16:48:29.036Z,41.36
2022-08-17T16:51:03.404Z,42.18
2022-08-17T16:53:33.607Z,41.52
2022-08-17T16:56:02.021Z,41.36
2022-08-17T16:58:31.131Z,41.05
2022-08-17T17:00:59.920Z,40.42
2022-08-17T17:03:30.043Z,39.88
2022-08-17T17:06:10.180Z,39.45
2022-08-17T17:09:00.882Z,38.94
2022-08-17T17:11:41.792Z,38.57
2022-08-17T17:14:15.548Z,38.31
2022-08-17T17:16:52.561Z,37.90
2022-08-17T17:19:40.603Z,37.29
2022-08-17T17:22:16.409Z,36.60
2022-08-17T17:24:53.959Z,35.96
2022-08-17T17:27:29.572Z,35.39
2022-08-17T17:30:09.952Z,34.88
2022-08-17T17:33:07.770Z,34.39
2022-08-17T17:35:50.838Z,33.89
2022-08-17T17:38:23.633Z,33.49
2022-08-17T17:41:04.514Z,33.11
2022-08-17T17:43:39.836Z,32.76
2022-08-17T17:46:30.616Z,32.42
2022-08-17T17:49:06.087Z,32.02
2022-08-17T17:51:54.808Z,31.71
2022-08-17T17:54:43.049Z,31.41
2022-08-17T17:57:22.416Z,31.13
2022-08-17T18:00:00.722Z,30.85
2022-08-17T18:03:07.357Z,30.57
2022-08-17T18:05:58.369Z,30.26
2022-08-17T18:09:02.191Z,29.96
2022-08-17T18:11:53.001Z,29.70
2022-08-17T18:14:55.519Z,29.48
2022-08-17T18:17:24.539Z,29.29
2022-08-17T18:21:46.231Z,29.11
2022-08-17T18:23:17.984Z,28.90
2022-08-17T18:25:50.443Z,28.76
2022-08-17T18:28:23.671Z,28.65
2022-08-17T18:31:11.260Z,28.52
2022-08-17T18:33:42.471Z,28.41
2022-08-17T18:36:11.808Z,28.27
2022-08-17T18:38:42.227Z,28.13
2022-08-17T18:41:19.289Z,28.01
2022-08-17T18:44:19.608Z,27.90
2022-08-17T18:47:05.620Z,27.74
2022-08-17T18:49:36.578Z,27.60
2022-08-17T18:52:32.953Z,27.48
2022-08-17T18:55:56.272Z,27.31
2022-08-17T18:58:53.910Z,27.09
2022-08-17T19:02:16.096Z,26.94
2022-08-17T19:05:18.621Z,26.81
2022-08-17T19:07:50.499Z,26.70
2022-08-17T19:10:46.714Z,26.59
2022-08-17T19:13:24.069Z,26.46
2022-08-17T19:16:15.692Z,26.34
2022-08-17T19:18:50.244Z,26.26
2022-08-17T19:21:35.374Z,26.18
2022-08-17T19:24:20.201Z,26.13
2022-08-17T19:27:19.894Z,26.04
2022-08-17T19:30:11.890Z,25.96
2022-08-17T19:32:41.194Z,25.91
2022-08-17T19:35:17.994Z,25.85
2022-08-17T19:38:13.173Z,25.80
2022-08-17T19:41:41.102Z,25.76
2022-08-17T19:44:53.270Z,25.67
2022-08-17T19:47:54.839Z,25.55
2022-08-17T19:50:50.204Z,25.44
2022-08-17T19:54:04.780Z,25.34
2022-08-17T19:57:10.583Z,25.28
2022-08-17T20:00:00.077Z,25.16
2022-08-17T20:02:32.734Z,25.05
2022-08-17T20:05:06.850Z,24.99
2022-08-17T20:08:09.752Z,24.95
2022-08-17T20:11:02.634Z,24.90
2022-08-17T20:13:56.817Z,24.82
2022-08-17T20:16:26.295Z,24.73
2022-08-17T20:19:25.278Z,24.67
2022-08-17T20:22:50.391Z,24.63
2022-08-17T20:26:04.527Z,24.52
2022-08-17T20:28:35.988Z,24.42
2022-08-17T20:31:09.981Z,24.37
2022-08-17T20:33:38.378Z,24.31
2022-08-17T20:36:24.895Z,24.30
2022-08-17T20:38:59.901Z,24.27
2022-08-17T20:41:33.419Z,24.25
2022-08-17T20:44:05.275Z,24.22
2022-08-17T20:46:36.669Z,24.19
2022-08-17T20:49:28.077Z,24.19
2022-08-17T20:52:13.727Z,24.19
2022-08-17T20:54:53.579Z,24.17
2022-08-17T20:57:31.777Z,24.16
2022-08-17T21:00:14.203Z,24.13
2022-08-17T21:02:49.878Z,24.13
2022-08-17T21:05:36.099Z,24.13
2022-08-17T21:08:53.815Z,24.12
2022-08-17T21:12:02.910Z,24.12
2022-08-17T21:14:34.522Z,24.11
2022-08-17T21:17:31.176Z,24.10
2022-08-17T21:20:13.067Z,24.10
2022-08-17T21:23:05.312Z,24.09
2022-08-17T21:25:49.310Z,24.06
2022-08-17T21:29:00.929Z,24.02
2022-08-17T21:31:35.269Z,23.99
2022-08-17T21:34:15.956Z,23.98
2022-08-17T21:36:48.563Z,23.95
2022-08-17T21:39:24.025Z,23.93
2022-08-17T21:42:00.534Z,23.91
2022-08-17T21:44:38.046Z,23.90
2022-08-17T21:47:26.558Z,23.86
2022-08-17T21:50:18.808Z,23.90
2022-08-17T21:52:56.295Z,23.85
2022-08-17T21:55:31.221Z,23.83
2022-08-17T21:58:24.568Z,23.83
2022-08-17T22:01:21.366Z,23.85
2022-08-17T22:03:55.829Z,23.85
2022-08-17T22:06:34.577Z,23.84
2022-08-17T22:09:25.913Z,23.83
2022-08-17T22:12:17.118Z,23.83
2022-08-17T22:14:51.507Z,23.83
2022-08-17T22:17:30.160Z,23.83
2022-08-17T22:20:19.135Z,23.84
2022-08-17T22:23:10.292Z,23.84
2022-08-17T22:25:42.436Z,23.86
2022-08-17T22:28:12.851Z,23.88
2022-08-17T22:31:08.344Z,23.92
2022-08-17T22:33:47.957Z,23.93
2022-08-17T22:36:41.996Z,23.95
2022-08-17T22:39:11.290Z,23.97
2022-08-17T22:42:04.473Z,23.97
2022-08-17T22:44:49.129Z,23.94
2022-08-17T22:47:22.976Z,23.95
2022-08-17T22:50:00.746Z,23.96
2022-08-17T22:52:34.411Z,23.95
2022-08-17T22:55:34.287Z,23.95
2022-08-17T22:58:32.081Z,23.95
2022-08-17T23:01:34.369Z,23.94
2022-08-17T23:04:38.863Z,23.93
2022-08-17T23:07:22.567Z,23.91
2022-08-17T23:10:06.064Z,23.88
2022-08-17T23:12:39.966Z,23.89
2022-08-17T23:15:20.730Z,23.91
2022-08-17T23:17:49.368Z,23.91
2022-08-17T23:20:19.273Z,23.91
2022-08-17T23:22:51.382Z,23.93
2022-08-17T23:25:41.031Z,23.92
2022-08-17T23:28:11.361Z,23.93
2022-08-17T23:30:43.849Z,23.90
2022-08-17T23:33:34.374Z,23.90
2022-08-17T23:36:10.006Z,23.88
2022-08-17T23:38:38.803Z,23.85
2022-08-17T23:41:12.180Z,23.82
2022-08-17T23:43:49.131Z,23.80
2022-08-17T23:46:22.723Z,23.78
2022-08-17T23:48:55.104Z,23.73
2022-08-17T23:51:39.901Z,23.66
2022-08-17T23:54:21.942Z,23.62
2022-08-17T23:56:56.622Z,23.58
2022-08-17T23:59:28.760Z,23.56
